sensor_id;sensor_type;location;lat;lon;timestamp;P1;durP1;ratioP1;P2;durP2;ratioP2
13951;SDS011;39535;52.192;9.886;2023-07-29T00:01:43;2.20;;;1.40;;
13951;SDS011;39535;52.192;9.886;2023-07-29T00:04:10;2.37;;;1.67;;
13951;SDS011;39535;52.192;9.886;2023-07-29T00:06:37;1.40;;;1.30;;
13951;SDS011;39535;52.192;9.886;2023-07-29T00:09:04;3.80;;;1.43;;
13951;SDS011;39535;52.192;9.886;2023-07-29T00:11:30;1.33;;;1.23;;
13951;SDS011;39535;52.192;9.886;2023-07-29T00:13:58;1.20;;;1.20;;
13951;SDS011;39535;52.192;9.886;2023-07-29T00:16:26;1.30;;;1.20;;
13951;SDS011;39535;52.192;9.886;2023-07-29T00:18:53;1.90;;;1.40;;
13951;SDS011;39535;52.192;9.886;2023-07-29T00:21:19;1.23;;;1.13;;
13951;SDS011;39535;52.192;9.886;2023-07-29T00:23:46;3.33;;;1.30;;
13951;SDS011;39535;52.192;9.886;2023-07-29T00:26:12;1.33;;;1.23;;
13951;SDS011;39535;52.192;9.886;2023-07-29T00:28:39;2.13;;;1.40;;
13951;SDS011;39535;52.192;9.886;2023-07-29T00:31:05;1.50;;;1.40;;
13951;SDS011;39535;52.192;9.886;2023-07-29T00:33:33;1.47;;;1.17;;
13951;SDS011;39535;52.192;9.886;2023-07-29T00:35:59;1.37;;;1.27;;
13951;SDS011;39535;52.192;9.886;2023-07-29T00:38:26;1.60;;;1.30;;
13951;SDS011;39535;52.192;9.886;2023-07-29T00:40:53;1.83;;;1.50;;
13951;SDS011;39535;52.192;9.886;2023-07-29T00:43:19;1.47;;;1.30;;
13951;SDS011;39535;52.192;9.886;2023-07-29T00:45:46;1.63;;;1.30;;
13951;SDS011;39535;52.192;9.886;2023-07-29T00:48:13;2.90;;;1.67;;
13951;SDS011;39535;52.192;9.886;2023-07-29T00:50:41;2.83;;;1.80;;
13951;SDS011;39535;52.192;9.886;2023-07-29T00:53:07;1.90;;;1.70;;
13951;SDS011;39535;52.192;9.886;2023-07-29T00:55:34;1.60;;;1.50;;
13951;SDS011;39535;52.192;9.886;2023-07-29T00:58:00;2.87;;;1.40;;
13951;SDS011;39535;52.192;9.886;2023-07-29T01:00:27;3.17;;;1.53;;
13951;SDS011;39535;52.192;9.886;2023-07-29T01:02:54;1.20;;;1.20;;
13951;SDS011;39535;52.192;9.886;2023-07-29T01:05:20;2.10;;;1.43;;
13951;SDS011;39535;52.192;9.886;2023-07-29T01:07:49;2.50;;;1.60;;
13951;SDS011;39535;52.192;9.886;2023-07-29T01:10:23;2.40;;;1.60;;
13951;SDS011;39535;52.192;9.886;2023-07-29T01:13:00;1.53;;;1.43;;
13951;SDS011;39535;52.192;9.886;2023-07-29T01:15:31;1.47;;;1.40;;
13951;SDS011;39535;52.192;9.886;2023-07-29T01:18:06;2.00;;;1.33;;
13951;SDS011;39535;52.192;9.886;2023-07-29T01:20:37;1.40;;;1.30;;
13951;SDS011;39535;52.192;9.886;2023-07-29T01:23:07;1.73;;;1.20;;
13951;SDS011;39535;52.192;9.886;2023-07-29T01:25:35;2.67;;;1.53;;
13951;SDS011;39535;52.192;9.886;2023-07-29T01:28:01;2.03;;;1.30;;
13951;SDS011;39535;52.192;9.886;2023-07-29T01:30:29;1.40;;;1.30;;
13951;SDS011;39535;52.192;9.886;2023-07-29T01:32:59;2.17;;;1.60;;
13951;SDS011;39535;52.192;9.886;2023-07-29T01:35:31;2.70;;;1.53;;
13951;SDS011;39535;52.192;9.886;2023-07-29T01:38:04;1.67;;;1.30;;
13951;SDS011;39535;52.192;9.886;2023-07-29T01:40:33;1.20;;;1.20;;
13951;SDS011;39535;52.192;9.886;2023-07-29T01:43:01;2.50;;;1.70;;
13951;SDS011;39535;52.192;9.886;2023-07-29T01:45:28;1.63;;;1.53;;
13951;SDS011;39535;52.192;9.886;2023-07-29T01:47:56;2.00;;;1.70;;
13951;SDS011;39535;52.192;9.886;2023-07-29T01:50:23;1.87;;;1.77;;
13951;SDS011;39535;52.192;9.886;2023-07-29T01:52:49;1.60;;;1.50;;
13951;SDS011;39535;52.192;9.886;2023-07-29T01:55:16;1.70;;;1.60;;
13951;SDS011;39535;52.192;9.886;2023-07-29T01:57:42;1.87;;;1.40;;
13951;SDS011;39535;52.192;9.886;2023-07-29T02:00:11;1.43;;;1.33;;
13951;SDS011;39535;52.192;9.886;2023-07-29T02:02:38;1.90;;;1.80;;
13951;SDS011;39535;52.192;9.886;2023-07-29T02:05:04;1.53;;;1.33;;
13951;SDS011;39535;52.192;9.886;2023-07-29T02:07:31;1.60;;;1.50;;
13951;SDS011;39535;52.192;9.886;2023-07-29T02:09:57;1.50;;;1.40;;
13951;SDS011;39535;52.192;9.886;2023-07-29T02:12:24;1.40;;;1.40;;
13951;SDS011;39535;52.192;9.886;2023-07-29T02:14:50;1.80;;;1.50;;
13951;SDS011;39535;52.192;9.886;2023-07-29T02:17:18;1.43;;;1.33;;
13951;SDS011;39535;52.192;9.886;2023-07-29T02:19:45;1.50;;;1.30;;
13951;SDS011;39535;52.192;9.886;2023-07-29T02:22:13;1.83;;;1.60;;
13951;SDS011;39535;52.192;9.886;2023-07-29T02:24:40;2.97;;;1.50;;
13951;SDS011;39535;52.192;9.886;2023-07-29T02:27:06;1.83;;;1.70;;
13951;SDS011;39535;52.192;9.886;2023-07-29T02:29:33;1.80;;;1.30;;
13951;SDS011;39535;52.192;9.886;2023-07-29T02:31:59;1.20;;;1.20;;
13951;SDS011;39535;52.192;9.886;2023-07-29T02:34:27;1.50;;;1.40;;
13951;SDS011;39535;52.192;9.886;2023-07-29T02:36:53;2.57;;;1.33;;
13951;SDS011;39535;52.192;9.886;2023-07-29T02:39:20;1.40;;;1.30;;
13951;SDS011;39535;52.192;9.886;2023-07-29T02:41:46;2.70;;;1.43;;
13951;SDS011;39535;52.192;9.886;2023-07-29T02:44:13;1.43;;;1.33;;
13951;SDS011;39535;52.192;9.886;2023-07-29T02:46:39;2.67;;;1.50;;
13951;SDS011;39535;52.192;9.886;2023-07-29T02:49:06;2.73;;;1.60;;
13951;SDS011;39535;52.192;9.886;2023-07-29T02:51:33;1.50;;;1.40;;
13951;SDS011;39535;52.192;9.886;2023-07-29T02:54:00;1.60;;;1.40;;
13951;SDS011;39535;52.192;9.886;2023-07-29T02:56:26;2.97;;;1.50;;
13951;SDS011;39535;52.192;9.886;2023-07-29T02:58:53;2.33;;;1.40;;
13951;SDS011;39535;52.192;9.886;2023-07-29T03:01:19;3.00;;;1.93;;
13951;SDS011;39535;52.192;9.886;2023-07-29T03:03:46;3.63;;;1.27;;
13951;SDS011;39535;52.192;9.886;2023-07-29T03:06:13;2.43;;;1.40;;
13951;SDS011;39535;52.192;9.886;2023-07-29T03:08:40;1.30;;;1.20;;
13951;SDS011;39535;52.192;9.886;2023-07-29T03:11:08;1.40;;;1.30;;
13951;SDS011;39535;52.192;9.886;2023-07-29T03:13:35;1.53;;;1.20;;
13951;SDS011;39535;52.192;9.886;2023-07-29T03:16:05;1.40;;;1.40;;
13951;SDS011;39535;52.192;9.886;2023-07-29T03:18:32;1.60;;;1.50;;
13951;SDS011;39535;52.192;9.886;2023-07-29T03:20:58;1.60;;;1.50;;
13951;SDS011;39535;52.192;9.886;2023-07-29T03:23:25;1.53;;;1.40;;
13951;SDS011;39535;52.192;9.886;2023-07-29T03:25:53;1.87;;;1.23;;
13951;SDS011;39535;52.192;9.886;2023-07-29T03:28:21;3.27;;;1.17;;
13951;SDS011;39535;52.192;9.886;2023-07-29T03:30:49;1.83;;;1.47;;
13951;SDS011;39535;52.192;9.886;2023-07-29T03:33:15;1.87;;;1.37;;
13951;SDS011;39535;52.192;9.886;2023-07-29T03:35:42;2.27;;;1.50;;
13951;SDS011;39535;52.192;9.886;2023-07-29T03:38:09;1.53;;;1.47;;
13951;SDS011;39535;52.192;9.886;2023-07-29T03:40:36;1.87;;;1.53;;
13951;SDS011;39535;52.192;9.886;2023-07-29T03:43:04;1.93;;;1.60;;
13951;SDS011;39535;52.192;9.886;2023-07-29T03:45:30;1.70;;;1.60;;
13951;SDS011;39535;52.192;9.886;2023-07-29T03:47:57;1.47;;;1.37;;
13951;SDS011;39535;52.192;9.886;2023-07-29T03:50:23;1.77;;;1.67;;
13951;SDS011;39535;52.192;9.886;2023-07-29T03:52:50;1.47;;;1.47;;
13951;SDS011;39535;52.192;9.886;2023-07-29T03:55:16;1.57;;;1.47;;
13951;SDS011;39535;52.192;9.886;2023-07-29T03:57:43;1.40;;;1.30;;
13951;SDS011;39535;52.192;9.886;2023-07-29T04:00:11;1.67;;;1.57;;
13951;SDS011;39535;52.192;9.886;2023-07-29T04:02:37;1.77;;;1.67;;
13951;SDS011;39535;52.192;9.886;2023-07-29T04:05:04;1.60;;;1.50;;
13951;SDS011;39535;52.192;9.886;2023-07-29T04:07:31;2.13;;;1.70;;
13951;SDS011;39535;52.192;9.886;2023-07-29T04:09:58;2.10;;;1.60;;
13951;SDS011;39535;52.192;9.886;2023-07-29T04:12:24;2.20;;;1.40;;
13951;SDS011;39535;52.192;9.886;2023-07-29T04:14:51;3.30;;;1.47;;
13951;SDS011;39535;52.192;9.886;2023-07-29T04:17:18;2.70;;;1.60;;
13951;SDS011;39535;52.192;9.886;2023-07-29T04:19:45;1.47;;;1.37;;
13951;SDS011;39535;52.192;9.886;2023-07-29T04:22:11;3.83;;;1.47;;
13951;SDS011;39535;52.192;9.886;2023-07-29T04:24:38;2.37;;;1.10;;
13951;SDS011;39535;52.192;9.886;2023-07-29T04:27:04;3.13;;;1.20;;
13951;SDS011;39535;52.192;9.886;2023-07-29T04:29:31;1.63;;;1.53;;
13951;SDS011;39535;52.192;9.886;2023-07-29T04:31:57;1.27;;;1.17;;
13951;SDS011;39535;52.192;9.886;2023-07-29T04:34:25;1.77;;;1.67;;
13951;SDS011;39535;52.192;9.886;2023-07-29T04:36:52;1.50;;;1.40;;
13951;SDS011;39535;52.192;9.886;2023-07-29T04:39:18;1.50;;;1.40;;
13951;SDS011;39535;52.192;9.886;2023-07-29T04:41:44;2.00;;;1.63;;
13951;SDS011;39535;52.192;9.886;2023-07-29T04:44:11;1.33;;;1.27;;
13951;SDS011;39535;52.192;9.886;2023-07-29T04:46:37;3.20;;;1.67;;
13951;SDS011;39535;52.192;9.886;2023-07-29T04:49:04;2.57;;;1.40;;
13951;SDS011;39535;52.192;9.886;2023-07-29T04:51:32;1.93;;;1.80;;
13951;SDS011;39535;52.192;9.886;2023-07-29T04:53:58;2.23;;;1.63;;
13951;SDS011;39535;52.192;9.886;2023-07-29T04:56:25;1.90;;;1.70;;
13951;SDS011;39535;52.192;9.886;2023-07-29T04:58:51;1.73;;;1.50;;
13951;SDS011;39535;52.192;9.886;2023-07-29T05:01:18;1.50;;;1.40;;
13951;SDS011;39535;52.192;9.886;2023-07-29T05:03:45;1.80;;;1.50;;
13951;SDS011;39535;52.192;9.886;2023-07-29T05:06:11;1.33;;;1.23;;
13951;SDS011;39535;52.192;9.886;2023-07-29T05:08:39;1.77;;;1.67;;
13951;SDS011;39535;52.192;9.886;2023-07-29T05:11:06;1.73;;;1.40;;
13951;SDS011;39535;52.192;9.886;2023-07-29T05:13:32;1.60;;;1.50;;
13951;SDS011;39535;52.192;9.886;2023-07-29T05:16:00;1.33;;;1.30;;
13951;SDS011;39535;52.192;9.886;2023-07-29T05:18:26;1.97;;;1.30;;
13951;SDS011;39535;52.192;9.886;2023-07-29T05:20:53;1.60;;;1.50;;
13951;SDS011;39535;52.192;9.886;2023-07-29T05:23:19;1.70;;;1.60;;
13951;SDS011;39535;52.192;9.886;2023-07-29T05:25:47;2.07;;;1.60;;
13951;SDS011;39535;52.192;9.886;2023-07-29T05:28:13;2.03;;;1.93;;
13951;SDS011;39535;52.192;9.886;2023-07-29T05:30:40;1.90;;;1.50;;
13951;SDS011;39535;52.192;9.886;2023-07-29T05:33:06;1.67;;;1.57;;
13951;SDS011;39535;52.192;9.886;2023-07-29T05:35:33;1.70;;;1.60;;
13951;SDS011;39535;52.192;9.886;2023-07-29T05:38:00;1.87;;;1.37;;
13951;SDS011;39535;52.192;9.886;2023-07-29T05:40:26;2.87;;;1.50;;
13951;SDS011;39535;52.192;9.886;2023-07-29T05:42:54;1.50;;;1.40;;
13951;SDS011;39535;52.192;9.886;2023-07-29T05:45:21;1.90;;;1.80;;
13951;SDS011;39535;52.192;9.886;2023-07-29T05:47:47;1.80;;;1.70;;
13951;SDS011;39535;52.192;9.886;2023-07-29T05:50:14;1.43;;;1.43;;
13951;SDS011;39535;52.192;9.886;2023-07-29T05:52:40;1.60;;;1.50;;
13951;SDS011;39535;52.192;9.886;2023-07-29T05:55:07;1.57;;;1.47;;
13951;SDS011;39535;52.192;9.886;2023-07-29T05:57:34;1.70;;;1.60;;
13951;SDS011;39535;52.192;9.886;2023-07-29T06:00:02;1.50;;;1.50;;
13951;SDS011;39535;52.192;9.886;2023-07-29T06:02:29;2.50;;;1.50;;
13951;SDS011;39535;52.192;9.886;2023-07-29T06:04:55;1.63;;;1.53;;
13951;SDS011;39535;52.192;9.886;2023-07-29T06:07:22;1.77;;;1.67;;
13951;SDS011;39535;52.192;9.886;2023-07-29T06:09:48;1.87;;;1.77;;
13951;SDS011;39535;52.192;9.886;2023-07-29T06:12:15;3.13;;;1.60;;
13951;SDS011;39535;52.192;9.886;2023-07-29T06:14:41;1.60;;;1.50;;
13951;SDS011;39535;52.192;9.886;2023-07-29T06:17:09;1.70;;;1.60;;
13951;SDS011;39535;52.192;9.886;2023-07-29T06:19:36;1.80;;;1.67;;
13951;SDS011;39535;52.192;9.886;2023-07-29T06:22:03;2.10;;;1.90;;
13951;SDS011;39535;52.192;9.886;2023-07-29T06:24:30;1.77;;;1.67;;
13951;SDS011;39535;52.192;9.886;2023-07-29T06:26:57;2.83;;;1.40;;
13951;SDS011;39535;52.192;9.886;2023-07-29T06:29:23;1.50;;;1.40;;
13951;SDS011;39535;52.192;9.886;2023-07-29T06:31:50;1.53;;;1.40;;
13951;SDS011;39535;52.192;9.886;2023-07-29T06:34:18;2.40;;;1.83;;
13951;SDS011;39535;52.192;9.886;2023-07-29T06:36:45;1.80;;;1.70;;
13951;SDS011;39535;52.192;9.886;2023-07-29T06:39:11;1.27;;;1.23;;
13951;SDS011;39535;52.192;9.886;2023-07-29T06:41:37;1.67;;;1.57;;
13951;SDS011;39535;52.192;9.886;2023-07-29T06:44:04;1.60;;;1.50;;
13951;SDS011;39535;52.192;9.886;2023-07-29T06:46:30;2.53;;;1.40;;
13951;SDS011;39535;52.192;9.886;2023-07-29T06:48:57;1.97;;;1.53;;
13951;SDS011;39535;52.192;9.886;2023-07-29T06:51:25;1.30;;;1.17;;
13951;SDS011;39535;52.192;9.886;2023-07-29T06:53:51;1.67;;;1.57;;
13951;SDS011;39535;52.192;9.886;2023-07-29T06:56:18;2.30;;;1.33;;
13951;SDS011;39535;52.192;9.886;2023-07-29T06:58:44;1.43;;;1.13;;
13951;SDS011;39535;52.192;9.886;2023-07-29T07:01:11;1.37;;;1.27;;
13951;SDS011;39535;52.192;9.886;2023-07-29T07:03:37;1.43;;;1.20;;
13951;SDS011;39535;52.192;9.886;2023-07-29T07:06:04;1.10;;;1.10;;
13951;SDS011;39535;52.192;9.886;2023-07-29T07:08:32;1.40;;;1.37;;
13951;SDS011;39535;52.192;9.886;2023-07-29T07:10:58;1.47;;;1.37;;
13951;SDS011;39535;52.192;9.886;2023-07-29T07:13:24;1.33;;;1.33;;
13951;SDS011;39535;52.192;9.886;2023-07-29T07:15:53;2.53;;;1.40;;
13951;SDS011;39535;52.192;9.886;2023-07-29T07:18:20;1.20;;;1.10;;
13951;SDS011;39535;52.192;9.886;2023-07-29T07:20:47;0.93;;;0.90;;
13951;SDS011;39535;52.192;9.886;2023-07-29T07:23:14;1.17;;;1.00;;
13951;SDS011;39535;52.192;9.886;2023-07-29T07:25:42;1.00;;;1.00;;
13951;SDS011;39535;52.192;9.886;2023-07-29T07:28:08;1.10;;;1.00;;
13951;SDS011;39535;52.192;9.886;2023-07-29T07:30:35;1.00;;;0.80;;
13951;SDS011;39535;52.192;9.886;2023-07-29T07:33:05;1.33;;;1.03;;
13951;SDS011;39535;52.192;9.886;2023-07-29T07:35:31;2.70;;;1.03;;
13951;SDS011;39535;52.192;9.886;2023-07-29T07:37:58;0.93;;;0.93;;
13951;SDS011;39535;52.192;9.886;2023-07-29T07:40:26;0.77;;;0.77;;
13951;SDS011;39535;52.192;9.886;2023-07-29T07:42:54;1.50;;;0.87;;
13951;SDS011;39535;52.192;9.886;2023-07-29T07:45:21;1.37;;;1.10;;
13951;SDS011;39535;52.192;9.886;2023-07-29T07:47:47;0.90;;;0.90;;
13951;SDS011;39535;52.192;9.886;2023-07-29T07:50:14;0.90;;;0.90;;
13951;SDS011;39535;52.192;9.886;2023-07-29T07:52:40;1.10;;;0.87;;
13951;SDS011;39535;52.192;9.886;2023-07-29T07:55:07;0.90;;;0.90;;
13951;SDS011;39535;52.192;9.886;2023-07-29T07:57:34;0.73;;;0.73;;
13951;SDS011;39535;52.192;9.886;2023-07-29T08:00:02;0.90;;;0.90;;
13951;SDS011;39535;52.192;9.886;2023-07-29T08:02:29;0.93;;;0.90;;
13951;SDS011;39535;52.192;9.886;2023-07-29T08:04:55;1.03;;;0.80;;
13951;SDS011;39535;52.192;9.886;2023-07-29T08:07:22;1.00;;;0.80;;
13951;SDS011;39535;52.192;9.886;2023-07-29T08:09:48;1.57;;;1.00;;
13951;SDS011;39535;52.192;9.886;2023-07-29T08:12:15;0.87;;;0.87;;
13951;SDS011;39535;52.192;9.886;2023-07-29T08:14:41;0.83;;;0.83;;
13951;SDS011;39535;52.192;9.886;2023-07-29T08:17:09;2.23;;;1.20;;
13951;SDS011;39535;52.192;9.886;2023-07-29T08:19:35;1.20;;;1.10;;
13951;SDS011;39535;52.192;9.886;2023-07-29T08:22:02;1.10;;;1.10;;
13951;SDS011;39535;52.192;9.886;2023-07-29T08:24:29;1.57;;;1.17;;
13951;SDS011;39535;52.192;9.886;2023-07-29T08:26:55;1.40;;;1.10;;
13951;SDS011;39535;52.192;9.886;2023-07-29T08:29:21;2.30;;;1.43;;
13951;SDS011;39535;52.192;9.886;2023-07-29T08:31:48;1.53;;;1.20;;
13951;SDS011;39535;52.192;9.886;2023-07-29T08:34:17;1.30;;;1.30;;
13951;SDS011;39535;52.192;9.886;2023-07-29T08:36:44;1.10;;;1.10;;
13951;SDS011;39535;52.192;9.886;2023-07-29T08:39:10;1.20;;;1.20;;
13951;SDS011;39535;52.192;9.886;2023-07-29T08:41:37;1.20;;;1.10;;
13951;SDS011;39535;52.192;9.886;2023-07-29T08:44:11;1.50;;;1.40;;
13951;SDS011;39535;52.192;9.886;2023-07-29T08:46:44;1.40;;;1.30;;
13951;SDS011;39535;52.192;9.886;2023-07-29T08:49:11;1.57;;;1.40;;
13951;SDS011;39535;52.192;9.886;2023-07-29T08:51:40;1.70;;;1.60;;
13951;SDS011;39535;52.192;9.886;2023-07-29T08:54:08;1.50;;;1.50;;
13951;SDS011;39535;52.192;9.886;2023-07-29T08:56:36;1.60;;;1.50;;
13951;SDS011;39535;52.192;9.886;2023-07-29T08:59:03;1.90;;;1.80;;
13951;SDS011;39535;52.192;9.886;2023-07-29T09:01:30;1.70;;;1.60;;
13951;SDS011;39535;52.192;9.886;2023-07-29T09:03:57;2.13;;;1.70;;
13951;SDS011;39535;52.192;9.886;2023-07-29T09:06:23;2.17;;;1.97;;
13951;SDS011;39535;52.192;9.886;2023-07-29T09:08:53;2.00;;;1.90;;
13951;SDS011;39535;52.192;9.886;2023-07-29T09:11:21;1.77;;;1.67;;
13951;SDS011;39535;52.192;9.886;2023-07-29T09:13:48;1.90;;;1.80;;
13951;SDS011;39535;52.192;9.886;2023-07-29T09:16:14;1.90;;;1.80;;
13951;SDS011;39535;52.192;9.886;2023-07-29T09:18:41;2.00;;;1.90;;
13951;SDS011;39535;52.192;9.886;2023-07-29T09:21:08;3.07;;;1.90;;
13951;SDS011;39535;52.192;9.886;2023-07-29T09:23:40;1.90;;;1.80;;
13951;SDS011;39535;52.192;9.886;2023-07-29T09:26:09;2.33;;;2.17;;
13951;SDS011;39535;52.192;9.886;2023-07-29T09:28:37;2.17;;;2.07;;
13951;SDS011;39535;52.192;9.886;2023-07-29T09:31:04;2.30;;;2.20;;
13951;SDS011;39535;52.192;9.886;2023-07-29T09:33:33;2.60;;;2.40;;
13951;SDS011;39535;52.192;9.886;2023-07-29T09:36:01;3.10;;;2.90;;
13951;SDS011;39535;52.192;9.886;2023-07-29T09:38:28;3.07;;;2.97;;
13951;SDS011;39535;52.192;9.886;2023-07-29T09:40:55;3.10;;;2.90;;
13951;SDS011;39535;52.192;9.886;2023-07-29T09:43:26;3.47;;;3.27;;
13951;SDS011;39535;52.192;9.886;2023-07-29T09:45:54;3.93;;;3.67;;
13951;SDS011;39535;52.192;9.886;2023-07-29T09:48:22;3.00;;;2.80;;
13951;SDS011;39535;52.192;9.886;2023-07-29T09:50:49;4.90;;;4.60;;
13951;SDS011;39535;52.192;9.886;2023-07-29T09:53:15;5.20;;;4.90;;
13951;SDS011;39535;52.192;9.886;2023-07-29T09:55:45;5.20;;;4.80;;
13951;SDS011;39535;52.192;9.886;2023-07-29T09:58:12;5.93;;;5.63;;
13951;SDS011;39535;52.192;9.886;2023-07-29T10:00:40;6.37;;;6.07;;
13951;SDS011;39535;52.192;9.886;2023-07-29T10:03:07;7.33;;;6.90;;
13951;SDS011;39535;52.192;9.886;2023-07-29T10:05:34;9.10;;;8.50;;
13951;SDS011;39535;52.192;9.886;2023-07-29T10:08:01;9.33;;;8.63;;
13951;SDS011;39535;52.192;9.886;2023-07-29T10:10:27;9.60;;;9.00;;
13951;SDS011;39535;52.192;9.886;2023-07-29T10:12:54;9.47;;;8.93;;
13951;SDS011;39535;52.192;9.886;2023-07-29T10:15:22;10.27;;;9.43;;
13951;SDS011;39535;52.192;9.886;2023-07-29T10:17:50;10.47;;;9.60;;
13951;SDS011;39535;52.192;9.886;2023-07-29T10:20:17;10.37;;;9.57;;
13951;SDS011;39535;52.192;9.886;2023-07-29T10:22:45;9.67;;;9.07;;
13951;SDS011;39535;52.192;9.886;2023-07-29T10:25:15;9.70;;;9.00;;
13951;SDS011;39535;52.192;9.886;2023-07-29T10:27:43;9.33;;;8.57;;
13951;SDS011;39535;52.192;9.886;2023-07-29T10:30:13;8.70;;;8.03;;
13951;SDS011;39535;52.192;9.886;2023-07-29T10:32:41;8.47;;;7.97;;
13951;SDS011;39535;52.192;9.886;2023-07-29T10:35:11;8.63;;;8.13;;
13951;SDS011;39535;52.192;9.886;2023-07-29T10:37:38;7.83;;;7.37;;
13951;SDS011;39535;52.192;9.886;2023-07-29T10:40:07;7.67;;;7.17;;
13951;SDS011;39535;52.192;9.886;2023-07-29T10:42:35;7.03;;;6.57;;
13951;SDS011;39535;52.192;9.886;2023-07-29T10:45:16;7.40;;;6.90;;
13951;SDS011;39535;52.192;9.886;2023-07-29T10:47:44;7.23;;;6.83;;
13951;SDS011;39535;52.192;9.886;2023-07-29T10:50:17;6.73;;;6.23;;
13951;SDS011;39535;52.192;9.886;2023-07-29T10:52:46;5.70;;;5.37;;
13951;SDS011;39535;52.192;9.886;2023-07-29T10:58:05;5.53;;;5.23;;
13951;SDS011;39535;52.192;9.886;2023-07-29T11:00:38;5.47;;;4.97;;
13951;SDS011;39535;52.192;9.886;2023-07-29T11:03:05;5.20;;;4.90;;
13951;SDS011;39535;52.192;9.886;2023-07-29T11:05:45;4.80;;;4.60;;
13951;SDS011;39535;52.192;9.886;2023-07-29T11:08:16;5.10;;;4.80;;
13951;SDS011;39535;52.192;9.886;2023-07-29T11:10:43;5.20;;;4.90;;
13951;SDS011;39535;52.192;9.886;2023-07-29T11:13:10;4.73;;;4.43;;
13951;SDS011;39535;52.192;9.886;2023-07-29T11:15:44;5.23;;;4.93;;
13951;SDS011;39535;52.192;9.886;2023-07-29T11:18:12;4.97;;;4.43;;
13951;SDS011;39535;52.192;9.886;2023-07-29T11:20:51;5.13;;;4.93;;
13951;SDS011;39535;52.192;9.886;2023-07-29T11:23:27;4.70;;;4.50;;
13951;SDS011;39535;52.192;9.886;2023-07-29T11:25:55;5.20;;;4.87;;
13951;SDS011;39535;52.192;9.886;2023-07-29T11:28:23;4.77;;;4.47;;
13951;SDS011;39535;52.192;9.886;2023-07-29T11:30:50;4.60;;;4.40;;
13951;SDS011;39535;52.192;9.886;2023-07-29T11:33:17;4.23;;;4.03;;
13951;SDS011;39535;52.192;9.886;2023-07-29T11:35:44;2.80;;;2.70;;
13951;SDS011;39535;52.192;9.886;2023-07-29T11:38:15;2.50;;;2.30;;
13951;SDS011;39535;52.192;9.886;2023-07-29T11:40:42;2.10;;;2.00;;
13951;SDS011;39535;52.192;9.886;2023-07-29T11:43:09;2.17;;;2.07;;
13951;SDS011;39535;52.192;9.886;2023-07-29T11:45:44;1.93;;;1.83;;
13951;SDS011;39535;52.192;9.886;2023-07-29T11:48:11;2.40;;;2.20;;
13951;SDS011;39535;52.192;9.886;2023-07-29T11:50:37;2.20;;;2.10;;
13951;SDS011;39535;52.192;9.886;2023-07-29T11:53:04;1.53;;;1.53;;
13951;SDS011;39535;52.192;9.886;2023-07-29T11:55:33;1.90;;;1.80;;
13951;SDS011;39535;52.192;9.886;2023-07-29T11:57:59;1.63;;;1.53;;
13951;SDS011;39535;52.192;9.886;2023-07-29T12:00:27;1.23;;;1.23;;
13951;SDS011;39535;52.192;9.886;2023-07-29T12:02:54;1.77;;;1.40;;
13951;SDS011;39535;52.192;9.886;2023-07-29T12:05:21;1.40;;;1.30;;
13951;SDS011;39535;52.192;9.886;2023-07-29T12:07:49;1.20;;;1.20;;
13951;SDS011;39535;52.192;9.886;2023-07-29T12:10:15;0.90;;;0.90;;
13951;SDS011;39535;52.192;9.886;2023-07-29T12:12:45;1.27;;;1.17;;
13951;SDS011;39535;52.192;9.886;2023-07-29T12:15:13;1.17;;;1.10;;
13951;SDS011;39535;52.192;9.886;2023-07-29T12:17:48;0.90;;;0.87;;
13951;SDS011;39535;52.192;9.886;2023-07-29T12:20:14;20.07;;;2.13;;
13951;SDS011;39535;52.192;9.886;2023-07-29T12:22:41;0.80;;;0.80;;
13951;SDS011;39535;52.192;9.886;2023-07-29T12:25:07;1.03;;;1.00;;
13951;SDS011;39535;52.192;9.886;2023-07-29T12:27:34;0.73;;;0.73;;
13951;SDS011;39535;52.192;9.886;2023-07-29T12:30:02;0.80;;;0.80;;
13951;SDS011;39535;52.192;9.886;2023-07-29T12:32:29;0.80;;;0.80;;
13951;SDS011;39535;52.192;9.886;2023-07-29T12:34:56;1.13;;;0.90;;
13951;SDS011;39535;52.192;9.886;2023-07-29T12:37:30;3.10;;;0.80;;
13951;SDS011;39535;52.192;9.886;2023-07-29T12:39:57;2.63;;;1.20;;
13951;SDS011;39535;52.192;9.886;2023-07-29T12:42:23;0.80;;;0.80;;
13951;SDS011;39535;52.192;9.886;2023-07-29T12:44:50;1.03;;;0.90;;
13951;SDS011;39535;52.192;9.886;2023-07-29T12:47:18;0.90;;;0.90;;
13951;SDS011;39535;52.192;9.886;2023-07-29T12:49:44;1.60;;;0.80;;
13951;SDS011;39535;52.192;9.886;2023-07-29T12:52:10;1.03;;;0.90;;
13951;SDS011;39535;52.192;9.886;2023-07-29T12:54:37;0.67;;;0.67;;
13951;SDS011;39535;52.192;9.886;2023-07-29T12:57:05;0.80;;;0.80;;
13951;SDS011;39535;52.192;9.886;2023-07-29T12:59:32;0.80;;;0.80;;
13951;SDS011;39535;52.192;9.886;2023-07-29T13:01:58;1.27;;;1.10;;
13951;SDS011;39535;52.192;9.886;2023-07-29T13:04:26;0.60;;;0.60;;
13951;SDS011;39535;52.192;9.886;2023-07-29T13:06:53;1.60;;;0.73;;
13951;SDS011;39535;52.192;9.886;2023-07-29T13:09:21;0.60;;;0.60;;
13951;SDS011;39535;52.192;9.886;2023-07-29T13:11:48;0.80;;;0.70;;
13951;SDS011;39535;52.192;9.886;2023-07-29T13:14:14;2.80;;;2.70;;
13951;SDS011;39535;52.192;9.886;2023-07-29T13:16:40;1.33;;;1.10;;
13951;SDS011;39535;52.192;9.886;2023-07-29T13:19:07;1.17;;;0.80;;
13951;SDS011;39535;52.192;9.886;2023-07-29T13:21:35;1.90;;;0.80;;
13951;SDS011;39535;52.192;9.886;2023-07-29T13:24:01;0.80;;;0.80;;
13951;SDS011;39535;52.192;9.886;2023-07-29T13:26:27;0.60;;;0.60;;
13951;SDS011;39535;52.192;9.886;2023-07-29T13:28:54;0.67;;;0.67;;
13951;SDS011;39535;52.192;9.886;2023-07-29T13:31:20;1.40;;;0.80;;
13951;SDS011;39535;52.192;9.886;2023-07-29T13:33:47;0.77;;;0.77;;
13951;SDS011;39535;52.192;9.886;2023-07-29T13:36:13;0.70;;;0.70;;
13951;SDS011;39535;52.192;9.886;2023-07-29T13:38:41;1.03;;;0.70;;
13951;SDS011;39535;52.192;9.886;2023-07-29T13:41:07;1.93;;;0.80;;
13951;SDS011;39535;52.192;9.886;2023-07-29T13:43:34;0.80;;;0.70;;
13951;SDS011;39535;52.192;9.886;2023-07-29T13:46:00;0.60;;;0.60;;
13951;SDS011;39535;52.192;9.886;2023-07-29T13:48:27;0.80;;;0.70;;
13951;SDS011;39535;52.192;9.886;2023-07-29T13:50:55;0.60;;;0.60;;
13951;SDS011;39535;52.192;9.886;2023-07-29T13:53:22;0.60;;;0.60;;
13951;SDS011;39535;52.192;9.886;2023-07-29T13:55:49;0.80;;;0.70;;
13951;SDS011;39535;52.192;9.886;2023-07-29T13:58:16;0.77;;;0.67;;
13951;SDS011;39535;52.192;9.886;2023-07-29T14:00:42;1.27;;;0.80;;
13951;SDS011;39535;52.192;9.886;2023-07-29T14:03:09;0.77;;;0.77;;
13951;SDS011;39535;52.192;9.886;2023-07-29T14:05:35;0.83;;;0.83;;
13951;SDS011;39535;52.192;9.886;2023-07-29T14:08:01;1.07;;;0.80;;
13951;SDS011;39535;52.192;9.886;2023-07-29T14:10:28;1.90;;;0.80;;
13951;SDS011;39535;52.192;9.886;2023-07-29T14:12:56;0.80;;;0.80;;
13951;SDS011;39535;52.192;9.886;2023-07-29T14:15:22;1.23;;;1.13;;
13951;SDS011;39535;52.192;9.886;2023-07-29T14:17:49;0.70;;;0.70;;
13951;SDS011;39535;52.192;9.886;2023-07-29T14:20:15;0.80;;;0.80;;
13951;SDS011;39535;52.192;9.886;2023-07-29T14:22:41;0.80;;;0.80;;
13951;SDS011;39535;52.192;9.886;2023-07-29T14:25:08;0.70;;;0.70;;
13951;SDS011;39535;52.192;9.886;2023-07-29T14:27:34;0.80;;;0.60;;
13951;SDS011;39535;52.192;9.886;2023-07-29T14:30:02;0.60;;;0.60;;
13951;SDS011;39535;52.192;9.886;2023-07-29T14:32:29;1.73;;;0.87;;
13951;SDS011;39535;52.192;9.886;2023-07-29T14:34:56;1.00;;;0.90;;
13951;SDS011;39535;52.192;9.886;2023-07-29T14:37:22;0.60;;;0.60;;
13951;SDS011;39535;52.192;9.886;2023-07-29T14:39:48;3.70;;;0.90;;
13951;SDS011;39535;52.192;9.886;2023-07-29T14:42:15;0.80;;;0.80;;
13951;SDS011;39535;52.192;9.886;2023-07-29T14:44:41;1.27;;;0.90;;
13951;SDS011;39535;52.192;9.886;2023-07-29T14:47:09;1.10;;;0.87;;
13951;SDS011;39535;52.192;9.886;2023-07-29T14:49:36;1.13;;;0.80;;
13951;SDS011;39535;52.192;9.886;2023-07-29T14:52:02;2.37;;;1.23;;